Adair, Missouri
Current Conditions -  °F | °C
As of 1:55 AM on Sunday 26 Oct 2014 (Local Time) from KIRK Reporting Station
Clear Clear  
Wind Chill: 52°   Ceiling: Unl
Heat Index: 52°   Visibility: 10mi
Dew Point: 41°   Wind: 7mph
Humidity: 66%   Direction: 60°ENE
Pressure: 30.04"   Gusts: NA
Location:  40.2186°N, 92.4328°W
Report Text: KIRK 260655Z AUTO 06006KT 10SM CLR 11/05 A3004 RMK AO2 SLP172 T01110050
Loading
Personal Weather Stations






























Interactive Weather Map
Tropical Storm Tracking
New forecast layout! Learn more

10-Day Weather Forecast

Advertisements
Track Severe Weather on mobile